createdAt,value
2018-06-28T00:00:28.980Z,999.33
2018-06-28T00:01:29.014Z,999.31
2018-06-28T00:02:29.048Z,999.31
2018-06-28T00:03:29.084Z,999.24
2018-06-28T00:04:29.117Z,999.26
2018-06-28T00:05:29.153Z,999.26
2018-06-28T00:06:29.189Z,999.20
2018-06-28T00:07:29.219Z,999.18
2018-06-28T00:08:29.254Z,999.22
2018-06-28T00:09:29.288Z,999.22
2018-06-28T00:10:29.324Z,999.22
2018-06-28T00:11:29.358Z,999.22
2018-06-28T00:12:29.392Z,999.23
2018-06-28T00:13:29.425Z,999.17
2018-06-28T00:14:29.462Z,999.21
2018-06-28T00:15:29.496Z,999.15
2018-06-28T00:16:29.530Z,999.19
2018-06-28T00:17:29.564Z,999.20
2018-06-28T00:18:29.599Z,999.19
2018-06-28T00:19:29.634Z,999.18
2018-06-28T00:20:29.667Z,999.19
2018-06-28T00:21:29.701Z,999.22
2018-06-28T00:22:29.736Z,999.22
2018-06-28T00:23:29.771Z,999.19
2018-06-28T00:24:29.805Z,999.22
2018-06-28T00:25:29.839Z,999.19
2018-06-28T00:26:29.874Z,999.19
2018-06-28T00:27:29.908Z,999.15
2018-06-28T00:28:29.942Z,999.19
2018-06-28T00:29:29.976Z,999.12
2018-06-28T00:30:30.012Z,999.18
2018-06-28T00:31:30.046Z,999.17
2018-06-28T00:32:30.081Z,999.17
2018-06-28T00:33:30.117Z,999.18
2018-06-28T00:34:30.149Z,999.22
2018-06-28T00:35:30.183Z,999.13
2018-06-28T00:36:30.217Z,999.15
2018-06-28T00:37:30.252Z,999.24
2018-06-28T00:38:30.287Z,999.15
2018-06-28T00:39:30.321Z,999.20
2018-06-28T00:40:30.360Z,999.20
2018-06-28T00:41:30.393Z,999.20
2018-06-28T00:42:30.423Z,999.20
2018-06-28T00:43:30.457Z,999.15
2018-06-28T00:44:30.492Z,999.18
2018-06-28T00:45:30.527Z,999.17
2018-06-28T00:46:30.560Z,999.16
2018-06-28T00:47:30.596Z,999.16
2018-06-28T00:48:30.628Z,999.16
2018-06-28T00:49:30.665Z,999.17
2018-06-28T00:50:30.698Z,999.10
2018-06-28T00:51:30.732Z,999.14
2018-06-28T00:52:30.766Z,999.14
2018-06-28T00:53:30.808Z,999.12
2018-06-28T00:54:30.835Z,999.13
2018-06-28T00:55:30.869Z,999.18
2018-06-28T00:56:30.903Z,999.18
2018-06-28T00:57:30.937Z,999.14
2018-06-28T00:58:30.970Z,999.14
2018-06-28T00:59:31.005Z,999.14
2018-06-28T01:00:31.092Z,999.15
2018-06-28T01:01:31.072Z,999.10
2018-06-28T01:02:31.111Z,999.14
2018-06-28T01:03:31.142Z,999.14
2018-06-28T01:04:31.174Z,999.09
2018-06-28T01:05:31.208Z,999.12
2018-06-28T01:06:31.270Z,999.11
2018-06-28T01:07:31.277Z,999.13
2018-06-28T01:08:31.311Z,999.13
2018-06-28T01:09:31.346Z,999.17
2018-06-28T01:10:31.380Z,999.16
2018-06-28T01:11:31.414Z,999.15
2018-06-28T01:12:31.446Z,999.17
2018-06-28T01:13:31.481Z,999.16
2018-06-28T01:14:31.515Z,999.13
2018-06-28T01:15:31.549Z,999.12
2018-06-28T01:16:31.582Z,999.13
2018-06-28T01:17:31.617Z,999.12
2018-06-28T01:18:31.651Z,999.14
2018-06-28T01:19:31.686Z,999.14
2018-06-28T01:20:31.718Z,999.10
2018-06-28T01:21:31.752Z,999.13
2018-06-28T01:22:31.788Z,999.14
2018-06-28T01:23:31.820Z,999.17
2018-06-28T01:24:31.855Z,999.16
2018-06-28T01:25:31.889Z,999.20
2018-06-28T01:26:31.923Z,999.20
2018-06-28T01:27:31.956Z,999.16
2018-06-28T01:28:31.989Z,999.20
2018-06-28T01:29:32.025Z,999.18
2018-06-28T01:30:32.057Z,999.17
2018-06-28T01:31:32.315Z,999.17
2018-06-28T01:32:32.126Z,999.15
2018-06-28T01:33:32.159Z,999.18
2018-06-28T01:34:32.194Z,999.20
2018-06-28T01:35:32.230Z,999.20
2018-06-28T01:36:32.464Z,999.19
2018-06-28T01:37:32.296Z,999.15
2018-06-28T01:38:32.331Z,999.18
2018-06-28T01:39:32.363Z,999.20
2018-06-28T01:40:32.420Z,999.19
2018-06-28T01:41:32.431Z,999.16
2018-06-28T01:42:32.465Z,999.12
2018-06-28T01:43:32.499Z,999.13
2018-06-28T01:44:32.532Z,999.13
2018-06-28T01:45:32.565Z,999.15
2018-06-28T01:46:32.803Z,999.09
2018-06-28T01:47:32.636Z,999.12
2018-06-28T01:48:32.668Z,999.10
2018-06-28T01:49:32.702Z,999.09
2018-06-28T01:50:32.737Z,999.09
2018-06-28T01:51:32.769Z,999.09
2018-06-28T01:52:32.802Z,999.06
2018-06-28T01:53:32.837Z,999.08
2018-06-28T01:54:33.201Z,999.06
2018-06-28T01:55:32.924Z,999.13
2018-06-28T01:56:33.341Z,999.10
2018-06-28T01:57:33.194Z,999.13
2018-06-28T01:58:33.025Z,999.11
2018-06-28T01:59:33.039Z,999.14
2018-06-28T02:00:33.072Z,999.16
2018-06-28T02:01:33.107Z,999.15
2018-06-28T02:02:33.140Z,999.15
2018-06-28T02:03:33.172Z,999.22
2018-06-28T02:04:33.207Z,999.25
2018-06-28T02:05:33.240Z,999.23
2018-06-28T02:06:33.274Z,999.18
2018-06-28T02:07:33.307Z,999.13
2018-06-28T02:08:33.341Z,999.11
2018-06-28T02:09:33.374Z,999.14
2018-06-28T02:10:33.408Z,999.09
2018-06-28T02:11:33.440Z,999.09
2018-06-28T02:12:33.475Z,999.08
2018-06-28T02:14:33.561Z,999.13
2018-06-28T02:15:33.778Z,999.14
2018-06-28T02:16:33.607Z,999.12
2018-06-28T02:17:33.642Z,999.11
2018-06-28T02:18:33.676Z,999.12
2018-06-28T02:19:33.709Z,999.12
2018-06-28T02:20:33.743Z,999.12
2018-06-28T02:21:33.775Z,999.14
2018-06-28T02:22:33.812Z,999.16
2018-06-28T02:23:33.843Z,999.15
2018-06-28T02:24:33.876Z,999.14
2018-06-28T02:26:33.943Z,999.18
2018-06-28T02:27:33.976Z,999.15
2018-06-28T02:28:34.008Z,999.15
2018-06-28T02:29:34.043Z,999.11
2018-06-28T02:30:34.076Z,999.15
2018-06-28T02:31:34.111Z,999.15
2018-06-28T02:32:34.142Z,999.16
2018-06-28T02:33:34.176Z,999.17
2018-06-28T02:34:34.209Z,999.16
2018-06-28T02:35:34.246Z,999.14
2018-06-28T02:36:34.275Z,999.18
2018-06-28T02:37:34.309Z,999.16
2018-06-28T02:38:34.341Z,999.16
2018-06-28T02:39:34.377Z,999.14
2018-06-28T02:40:34.407Z,999.13
2018-06-28T02:41:34.441Z,999.09
2018-06-28T02:42:34.473Z,999.10
2018-06-28T02:43:34.507Z,999.12
2018-06-28T02:44:34.563Z,999.15
2018-06-28T02:45:34.580Z,999.14
2018-06-28T02:46:34.827Z,999.11
2018-06-28T02:47:34.639Z,999.12
2018-06-28T02:48:34.672Z,999.08
2018-06-28T02:49:34.708Z,999.06
2018-06-28T02:50:34.744Z,999.10
2018-06-28T02:51:40.759Z,999.09
2018-06-28T02:52:34.806Z,999.09
2018-06-28T02:53:34.844Z,999.12
2018-06-28T02:54:34.869Z,999.07
2018-06-28T02:55:34.902Z,999.11
2018-06-28T02:56:34.935Z,999.11
2018-06-28T02:57:34.970Z,999.09
2018-06-28T02:58:35.000Z,999.09
2018-06-28T02:59:35.043Z,999.15
2018-06-28T03:00:35.065Z,999.15
2018-06-28T03:01:35.107Z,999.09
2018-06-28T03:02:35.132Z,999.18
2018-06-28T03:03:35.165Z,999.18
2018-06-28T03:04:35.198Z,999.19
2018-06-28T03:05:35.235Z,999.25
2018-06-28T03:06:35.266Z,999.23
2018-06-28T03:07:35.307Z,999.23
2018-06-28T03:08:35.331Z,999.18
2018-06-28T03:09:35.361Z,999.22
2018-06-28T03:10:35.403Z,999.23
2018-06-28T03:11:35.427Z,999.24
2018-06-28T03:12:35.464Z,999.23
2018-06-28T03:13:35.494Z,999.26
2018-06-28T03:14:35.528Z,999.25
2018-06-28T03:15:35.559Z,999.27
2018-06-28T03:16:35.590Z,999.24
2018-06-28T03:17:35.626Z,999.29
2018-06-28T03:18:35.657Z,999.32
2018-06-28T03:19:35.689Z,999.30
2018-06-28T03:20:35.722Z,999.33
2018-06-28T03:21:35.756Z,999.34
2018-06-28T03:22:35.787Z,999.36
2018-06-28T03:23:35.820Z,999.32
2018-06-28T03:24:35.851Z,999.35
2018-06-28T03:25:35.884Z,999.36
2018-06-28T03:26:35.920Z,999.37
2018-06-28T03:27:35.953Z,999.36
2018-06-28T03:28:35.985Z,999.39
2018-06-28T03:29:36.015Z,999.37
2018-06-28T03:30:36.048Z,999.35
2018-06-28T03:31:36.081Z,999.32
2018-06-28T03:32:36.112Z,999.38
2018-06-28T03:33:36.145Z,999.39
2018-06-28T03:34:36.177Z,999.43
2018-06-28T03:35:36.229Z,999.43
2018-06-28T03:36:36.242Z,999.42
2018-06-28T03:37:36.348Z,999.39
2018-06-28T03:38:36.308Z,999.36
2018-06-28T03:39:36.340Z,999.35
2018-06-28T03:40:36.372Z,999.38
2018-06-28T03:41:36.404Z,999.41
2018-06-28T03:42:36.437Z,999.44
2018-06-28T03:43:36.469Z,999.45
2018-06-28T03:44:36.502Z,999.47
2018-06-28T03:45:36.534Z,999.48
2018-06-28T03:46:36.566Z,999.45
2018-06-28T03:47:36.599Z,999.43
2018-06-28T03:48:36.636Z,999.48
2018-06-28T03:49:36.663Z,999.46
2018-06-28T03:50:36.696Z,999.46
2018-06-28T03:51:36.728Z,999.46
2018-06-28T03:52:36.760Z,999.45
2018-06-28T03:53:36.793Z,999.47
2018-06-28T03:54:36.826Z,999.44
2018-06-28T03:55:36.859Z,999.46
2018-06-28T03:56:36.908Z,999.47
2018-06-28T03:57:36.922Z,999.45
2018-06-28T03:58:36.956Z,999.44
2018-06-28T03:59:36.988Z,999.45
2018-06-28T04:00:37.019Z,999.44
2018-06-28T04:01:37.052Z,999.48
2018-06-28T04:02:37.083Z,999.47
2018-06-28T04:03:37.117Z,999.45
2018-06-28T04:04:37.149Z,999.45
2018-06-28T04:05:37.181Z,999.43
2018-06-28T04:06:37.232Z,999.44
2018-06-28T04:07:37.246Z,999.44
2018-06-28T04:08:37.277Z,999.41
2018-06-28T04:09:37.311Z,999.40
2018-06-28T04:10:37.343Z,999.45
2018-06-28T04:11:37.376Z,999.43
2018-06-28T04:12:37.410Z,999.43
2018-06-28T04:13:37.439Z,999.40
2018-06-28T04:14:37.473Z,999.45
2018-06-28T04:15:37.509Z,999.41
2018-06-28T04:16:37.562Z,999.46
2018-06-28T04:17:37.569Z,999.47
2018-06-28T04:18:37.601Z,999.48
2018-06-28T04:19:37.634Z,999.49
2018-06-28T04:20:37.666Z,999.44
2018-06-28T04:21:37.699Z,999.45
2018-06-28T04:22:37.732Z,999.48
2018-06-28T04:23:37.766Z,999.48
2018-06-28T04:24:37.796Z,999.44
2018-06-28T04:25:37.829Z,999.43
2018-06-28T04:26:37.862Z,999.43
2018-06-28T04:27:37.895Z,999.42
2018-06-28T04:28:37.926Z,999.44
2018-06-28T04:29:37.958Z,999.48
2018-06-28T04:30:37.994Z,999.46
2018-06-28T04:31:38.028Z,999.52
2018-06-28T04:32:38.057Z,999.53
2018-06-28T04:33:38.091Z,999.54
2018-06-28T04:34:38.123Z,999.52
2018-06-28T04:35:38.160Z,999.54
2018-06-28T04:36:38.188Z,999.46
2018-06-28T04:37:38.221Z,999.49
2018-06-28T04:38:38.264Z,999.53
2018-06-28T04:39:38.287Z,999.48
2018-06-28T04:40:38.320Z,999.48
2018-06-28T04:41:38.352Z,999.51
2018-06-28T04:42:38.385Z,999.54
2018-06-28T04:43:38.417Z,999.52
2018-06-28T04:44:38.450Z,999.55
2018-06-28T04:45:38.484Z,999.50
2018-06-28T04:46:38.516Z,999.50
2018-06-28T04:47:38.551Z,999.49
2018-06-28T04:48:38.582Z,999.47
2018-06-28T04:49:38.615Z,999.47
2018-06-28T04:50:38.649Z,999.48
2018-06-28T04:51:38.704Z,999.48
2018-06-28T04:52:38.736Z,999.52
2018-06-28T04:53:38.748Z,999.52
2018-06-28T04:54:39.009Z,999.47
2018-06-28T04:55:38.813Z,999.47
2018-06-28T04:56:38.848Z,999.44
2018-06-28T04:57:38.879Z,999.42
2018-06-28T04:58:38.914Z,999.45
2018-06-28T04:59:38.947Z,999.49
2018-06-28T05:00:38.979Z,999.47
2018-06-28T05:01:39.012Z,999.51
2018-06-28T05:02:39.046Z,999.44
2018-06-28T05:03:39.079Z,999.45
2018-06-28T05:04:39.112Z,999.44
2018-06-28T05:05:39.145Z,999.40
2018-06-28T05:06:39.178Z,999.42
2018-06-28T05:07:39.212Z,999.43
2018-06-28T05:08:39.245Z,999.40
2018-06-28T05:09:39.278Z,999.39
2018-06-28T05:10:39.313Z,999.36
2018-06-28T05:11:39.345Z,999.38
2018-06-28T05:12:39.379Z,999.35
2018-06-28T05:13:39.412Z,999.37
2018-06-28T05:14:39.446Z,999.39
2018-06-28T05:15:39.479Z,999.41
2018-06-28T05:16:39.512Z,999.41
2018-06-28T05:17:39.545Z,999.39
2018-06-28T05:18:39.580Z,999.39
2018-06-28T05:19:39.613Z,999.43
2018-06-28T05:20:39.647Z,999.46
2018-06-28T05:21:39.681Z,999.42
2018-06-28T05:22:39.715Z,999.39
2018-06-28T05:23:39.748Z,999.39
2018-06-28T05:24:39.781Z,999.38
2018-06-28T05:25:39.816Z,999.41
2018-06-28T05:26:39.850Z,999.38
2018-06-28T05:27:39.884Z,999.38
2018-06-28T05:28:39.917Z,999.41
2018-06-28T05:29:39.950Z,999.38
2018-06-28T05:30:39.986Z,999.36
2018-06-28T05:31:40.021Z,999.36
2018-06-28T05:32:40.053Z,999.40
2018-06-28T05:33:40.087Z,999.34
2018-06-28T05:34:40.128Z,999.34
2018-06-28T05:35:40.154Z,999.31
2018-06-28T05:36:40.192Z,999.35
2018-06-28T05:37:40.223Z,999.37
2018-06-28T05:38:40.257Z,999.36
2018-06-28T05:39:40.291Z,999.38
2018-06-28T05:40:40.327Z,999.38
2018-06-28T05:41:40.359Z,999.32
2018-06-28T05:42:40.393Z,999.29
2018-06-28T05:43:40.428Z,999.34
2018-06-28T05:44:40.462Z,999.36
2018-06-28T05:45:40.497Z,999.42
2018-06-28T05:46:40.531Z,999.39
2018-06-28T05:47:40.566Z,999.36
2018-06-28T05:48:40.599Z,999.36
2018-06-28T05:49:40.635Z,999.36
2018-06-28T05:50:40.668Z,999.32
2018-06-28T05:51:40.704Z,999.35
2018-06-28T05:52:40.738Z,999.31
2018-06-28T05:53:40.771Z,999.35
2018-06-28T05:54:40.808Z,999.37
2018-06-28T05:55:40.843Z,999.37
2018-06-28T05:56:40.880Z,999.37
2018-06-28T05:57:40.913Z,999.37
2018-06-28T05:58:40.946Z,999.30
2018-06-28T05:59:40.981Z,999.32
2018-06-28T06:00:41.015Z,999.33
2018-06-28T06:01:41.050Z,999.32
2018-06-28T06:02:41.086Z,999.29
2018-06-28T06:03:41.120Z,999.29
2018-06-28T06:04:41.155Z,999.32
2018-06-28T06:05:41.189Z,999.33
2018-06-28T06:06:41.225Z,999.28
2018-06-28T06:07:41.261Z,999.26
2018-06-28T06:08:41.294Z,999.26
2018-06-28T06:09:41.329Z,999.26
2018-06-28T06:10:41.365Z,999.27
2018-06-28T06:11:41.401Z,999.24
2018-06-28T06:12:41.435Z,999.25
2018-06-28T06:13:41.471Z,999.23
2018-06-28T06:14:41.508Z,999.28
2018-06-28T06:15:41.544Z,999.28
2018-06-28T06:16:41.578Z,999.28
2018-06-28T06:17:41.612Z,999.30
2018-06-28T06:18:41.649Z,999.31
2018-06-28T06:19:41.698Z,999.32
2018-06-28T06:20:41.717Z,999.34
2018-06-28T06:21:41.752Z,999.31
2018-06-28T06:22:41.788Z,999.32
2018-06-28T06:23:41.823Z,999.29
2018-06-28T06:24:41.858Z,999.25
2018-06-28T06:25:41.894Z,999.27
2018-06-28T06:26:41.931Z,999.27
2018-06-28T06:27:41.965Z,999.30
2018-06-28T06:28:42.003Z,999.26
2018-06-28T06:29:42.036Z,999.27
2018-06-28T06:30:42.072Z,999.27
2018-06-28T06:31:42.108Z,999.27
2018-06-28T06:32:42.142Z,999.27
2018-06-28T06:33:42.177Z,999.26
2018-06-28T06:34:42.214Z,999.27
2018-06-28T06:35:42.250Z,999.25
2018-06-28T06:36:42.284Z,999.25
2018-06-28T06:37:42.321Z,999.21
2018-06-28T06:38:42.360Z,999.24
2018-06-28T06:39:42.394Z,999.22
2018-06-28T06:40:42.428Z,999.21
2018-06-28T06:41:42.465Z,999.24
2018-06-28T06:42:42.499Z,999.26
2018-06-28T06:43:42.534Z,999.23
2018-06-28T06:44:42.573Z,999.24
2018-06-28T06:45:42.605Z,999.27
2018-06-28T06:46:42.642Z,999.27
2018-06-28T06:47:42.679Z,999.27
2018-06-28T06:48:42.718Z,999.25
2018-06-28T06:49:42.750Z,999.27
2018-06-28T06:50:42.785Z,999.30
2018-06-28T06:51:42.824Z,999.29
2018-06-28T06:52:42.857Z,999.28
2018-06-28T06:53:42.898Z,999.30
2018-06-28T06:54:42.930Z,999.24
2018-06-28T06:55:42.965Z,999.19
2018-06-28T06:56:43.001Z,999.23
2018-06-28T06:57:43.047Z,999.21
2018-06-28T06:58:43.076Z,999.20
2018-06-28T06:59:43.111Z,999.23
2018-06-28T07:00:43.149Z,999.18
2018-06-28T07:01:43.182Z,999.23
2018-06-28T07:02:43.319Z,999.22
2018-06-28T07:03:43.255Z,999.20
2018-06-28T07:04:43.291Z,999.21
2018-06-28T07:05:43.327Z,999.20
2018-06-28T07:06:43.362Z,999.20
2018-06-28T07:07:43.400Z,999.21
2018-06-28T07:08:43.436Z,999.16
2018-06-28T07:09:43.471Z,999.17
2018-06-28T07:10:43.509Z,999.17
2018-06-28T07:11:43.544Z,999.14
2018-06-28T07:12:43.581Z,999.15
2018-06-28T07:13:43.617Z,999.14
2018-06-28T07:14:43.656Z,999.13
2018-06-28T07:15:43.691Z,999.12
2018-06-28T07:16:43.727Z,999.19
2018-06-28T07:17:43.763Z,999.17
2018-06-28T07:18:43.804Z,999.17
2018-06-28T07:19:43.837Z,999.17
2018-06-28T07:20:43.872Z,999.16
2018-06-28T07:21:43.913Z,999.18
2018-06-28T07:22:43.952Z,999.19
2018-06-28T07:23:44.021Z,999.17
2018-06-28T07:24:44.020Z,999.23
2018-06-28T07:25:44.056Z,999.18
2018-06-28T07:26:44.094Z,999.18
2018-06-28T07:27:44.130Z,999.18
2018-06-28T07:28:44.208Z,999.12
2018-06-28T07:29:44.221Z,999.14
2018-06-28T07:30:44.241Z,999.14
2018-06-28T07:31:44.282Z,999.17
2018-06-28T07:32:44.315Z,999.17
2018-06-28T07:33:44.352Z,999.12
2018-06-28T07:34:44.389Z,999.13
2018-06-28T07:35:44.427Z,999.14
2018-06-28T07:36:44.463Z,999.19
2018-06-28T07:37:44.500Z,999.15
2018-06-28T07:38:44.538Z,999.13
2018-06-28T07:39:44.575Z,999.15
2018-06-28T07:40:44.613Z,999.13
2018-06-28T07:41:44.649Z,999.15
2018-06-28T07:42:44.687Z,999.13
2018-06-28T07:43:44.726Z,999.20
2018-06-28T07:44:44.761Z,999.12
2018-06-28T07:45:44.799Z,999.19
2018-06-28T07:46:44.845Z,999.14
2018-06-28T07:47:44.873Z,999.12
2018-06-28T07:48:44.914Z,999.12
2018-06-28T07:49:45.172Z,999.11
2018-06-28T07:50:45.013Z,999.10
2018-06-28T07:51:45.031Z,999.10
2018-06-28T07:52:45.691Z,999.10
2018-06-28T07:53:45.097Z,999.06
2018-06-28T07:54:45.356Z,998.90
2018-06-28T07:55:45.173Z,999.08
2018-06-28T07:56:45.210Z,999.12
2018-06-28T07:57:45.247Z,999.10
2018-06-28T07:58:45.285Z,999.07
2018-06-28T07:59:45.326Z,999.05
2018-06-28T08:00:45.361Z,999.07
2018-06-28T08:01:45.398Z,999.11
2018-06-28T08:02:45.498Z,999.03
2018-06-28T08:03:45.473Z,998.90
2018-06-28T08:04:45.511Z,999.05
2018-06-28T08:05:45.550Z,999.10
2018-06-28T08:06:45.589Z,999.13
2018-06-28T08:07:45.626Z,999.08
2018-06-28T08:08:45.662Z,999.09
2018-06-28T08:09:45.772Z,999.13
2018-06-28T08:10:45.737Z,999.08
2018-06-28T08:11:45.777Z,999.11
2018-06-28T08:12:45.814Z,999.07
2018-06-28T08:13:45.852Z,999.01
2018-06-28T08:14:45.890Z,999.11
2018-06-28T08:15:45.929Z,999.07
2018-06-28T08:16:45.966Z,999.09
2018-06-28T08:17:46.005Z,999.01
2018-06-28T08:18:46.044Z,998.92
2018-06-28T08:19:46.081Z,999.00
2018-06-28T08:20:46.119Z,998.98
2018-06-28T08:21:46.159Z,998.94
2018-06-28T08:22:46.198Z,998.83
2018-06-28T08:23:46.236Z,998.92
2018-06-28T08:24:46.274Z,998.95
2018-06-28T08:25:46.312Z,998.94
2018-06-28T08:26:46.351Z,998.96
2018-06-28T08:28:46.434Z,998.84
2018-06-28T08:29:46.468Z,998.86
2018-06-28T08:30:46.510Z,998.86
2018-06-28T08:31:46.546Z,998.86
2018-06-28T08:32:46.585Z,998.88
2018-06-28T08:33:46.624Z,998.89
2018-06-28T08:34:46.663Z,998.91
2018-06-28T08:35:46.719Z,998.95
2018-06-28T08:36:46.742Z,998.94
2018-06-28T08:37:46.781Z,998.86
2018-06-28T08:38:46.819Z,998.97
2018-06-28T08:39:46.860Z,998.87
2018-06-28T08:40:46.900Z,998.85
2018-06-28T08:41:46.941Z,998.75
2018-06-28T08:42:46.977Z,998.79
2018-06-28T08:43:47.018Z,998.82
2018-06-28T08:44:47.056Z,998.91
2018-06-28T08:45:47.096Z,998.96
2018-06-28T08:46:47.137Z,998.93
2018-06-28T08:47:47.397Z,998.90
2018-06-28T08:48:47.216Z,998.92
2018-06-28T08:49:47.257Z,998.89
2018-06-28T08:50:47.299Z,998.97
2018-06-28T08:51:47.337Z,998.95
2018-06-28T08:52:47.376Z,998.98
2018-06-28T08:53:47.417Z,998.90
2018-06-28T08:54:47.457Z,998.93
2018-06-28T08:55:47.496Z,998.77
2018-06-28T08:56:47.537Z,998.79
2018-06-28T08:57:47.657Z,998.71
2018-06-28T08:58:47.616Z,998.69
2018-06-28T08:59:47.658Z,998.80
2018-06-28T09:00:47.698Z,998.90
2018-06-28T09:01:47.739Z,998.92
2018-06-28T09:02:47.781Z,998.92
2018-06-28T09:03:47.819Z,998.86
2018-06-28T09:04:47.860Z,998.89
2018-06-28T09:05:47.961Z,998.92
2018-06-28T09:06:47.941Z,998.89
2018-06-28T09:07:47.982Z,998.90
2018-06-28T09:08:48.025Z,998.79
2018-06-28T09:09:48.065Z,998.70
2018-06-28T09:10:48.104Z,998.74
2018-06-28T09:11:48.146Z,998.79
2018-06-28T09:12:48.186Z,998.73
2018-06-28T09:13:48.227Z,998.76
2018-06-28T09:14:48.268Z,998.75
2018-06-28T09:15:48.309Z,998.73
2018-06-28T09:16:48.350Z,998.77
2018-06-28T09:17:48.391Z,998.79
2018-06-28T09:18:48.432Z,998.79
2018-06-28T09:19:48.473Z,998.79
2018-06-28T09:20:48.513Z,998.80
2018-06-28T09:21:48.554Z,998.80
2018-06-28T09:22:48.608Z,998.81
2018-06-28T09:23:48.638Z,998.83
2018-06-28T09:24:48.678Z,998.70
2018-06-28T09:25:48.722Z,998.70
2018-06-28T09:26:48.761Z,998.86
2018-06-28T09:27:48.805Z,998.82
2018-06-28T09:28:48.843Z,998.76
2018-06-28T09:29:48.885Z,998.83
2018-06-28T09:30:48.928Z,998.83
2018-06-28T09:31:48.969Z,998.83
2018-06-28T09:32:49.010Z,998.78
2018-06-28T09:33:49.052Z,998.80
2018-06-28T09:34:49.092Z,998.76
2018-06-28T09:35:49.193Z,998.74
2018-06-28T09:36:49.176Z,998.82
2018-06-28T09:37:49.218Z,998.84
2018-06-28T09:38:49.260Z,998.78
2018-06-28T09:39:49.301Z,998.80
2018-06-28T09:40:49.343Z,998.65
2018-06-28T09:41:49.385Z,998.66
2018-06-28T09:42:49.428Z,998.68
2018-06-28T09:43:49.474Z,998.81
2018-06-28T09:46:49.596Z,998.86
2018-06-28T09:47:49.638Z,998.89
2018-06-28T09:48:49.700Z,998.92
2018-06-28T09:49:49.721Z,998.92
2018-06-28T09:50:49.763Z,998.81
2018-06-28T09:51:49.805Z,998.83
2018-06-28T09:52:49.847Z,999.08
2018-06-28T09:53:49.889Z,999.00
2018-06-28T09:54:50.040Z,999.06
2018-06-28T09:55:49.973Z,998.91
2018-06-28T09:56:50.032Z,998.74
2018-06-28T09:57:50.056Z,998.68
2018-06-28T09:58:50.098Z,998.71
2018-06-28T09:59:50.747Z,998.68
2018-06-28T10:00:50.402Z,998.70
2018-06-28T10:01:50.223Z,998.79
2018-06-28T10:02:50.265Z,998.86
2018-06-28T10:03:50.307Z,998.89
2018-06-28T10:04:50.348Z,998.84
2018-06-28T10:05:50.391Z,998.77
2018-06-28T10:06:50.442Z,998.81
2018-06-28T10:07:50.476Z,998.86
2018-06-28T10:08:50.519Z,999.00
2018-06-28T10:09:50.560Z,998.81
2018-06-28T10:10:50.601Z,998.80
2018-06-28T10:11:50.645Z,998.85
2018-06-28T10:12:50.687Z,998.80
2018-06-28T10:13:50.729Z,998.82
2018-06-28T10:14:50.835Z,998.78
2018-06-28T10:15:50.815Z,998.78
2018-06-28T10:16:50.857Z,998.90
2018-06-28T10:17:50.926Z,998.85
2018-06-28T10:18:50.944Z,998.93
2018-06-28T10:19:50.984Z,999.04
2018-06-28T10:20:51.027Z,998.86
2018-06-28T10:21:51.071Z,998.84
2018-06-28T10:22:51.113Z,998.73
2018-06-28T10:23:51.156Z,998.90
2018-06-28T10:24:51.199Z,998.90
2018-06-28T10:25:51.244Z,998.83
2018-06-28T10:26:51.285Z,998.75
2018-06-28T10:27:51.329Z,998.76
2018-06-28T10:28:51.371Z,998.70
2018-06-28T10:29:51.416Z,998.75
2018-06-28T10:30:51.458Z,998.69
2018-06-28T10:31:51.500Z,998.68
2018-06-28T10:32:51.544Z,998.51
2018-06-28T10:33:51.591Z,998.58
2018-06-28T10:34:51.631Z,998.65
2018-06-28T10:35:51.674Z,998.66
2018-06-28T10:36:51.717Z,998.68
2018-06-28T10:37:51.760Z,998.60
2018-06-28T10:38:51.804Z,998.63
2018-06-28T10:39:51.847Z,998.55
2018-06-28T10:40:51.922Z,998.42
2018-06-28T10:41:51.932Z,998.52
2018-06-28T10:42:51.975Z,998.58
2018-06-28T10:43:52.018Z,998.44
2018-06-28T10:44:52.061Z,998.50
2018-06-28T10:45:52.104Z,998.39
2018-06-28T10:46:52.148Z,998.44
2018-06-28T10:47:52.191Z,998.58
2018-06-28T10:48:52.235Z,998.58
2018-06-28T10:49:52.276Z,998.53
2018-06-28T10:50:52.321Z,998.55
2018-06-28T10:51:52.364Z,998.52
2018-06-28T10:52:52.406Z,998.53
2018-06-28T10:53:52.491Z,998.54
2018-06-28T10:54:52.496Z,998.53
2018-06-28T10:55:52.537Z,998.57
2018-06-28T10:56:52.578Z,998.61
2018-06-28T10:57:52.623Z,999.20
2018-06-28T10:58:52.665Z,998.67
2018-06-28T10:59:52.709Z,998.66
2018-06-28T11:00:52.750Z,998.67
2018-06-28T11:01:52.816Z,998.65
2018-06-28T11:03:52.882Z,999.01
2018-06-28T11:04:52.925Z,998.50
2018-06-28T11:05:52.968Z,998.59
2018-06-28T11:06:53.014Z,998.48
2018-06-28T11:07:53.057Z,998.52
2018-06-28T11:08:53.101Z,998.49
2018-06-28T11:09:53.145Z,998.42
2018-06-28T11:10:53.188Z,998.65
2018-06-28T11:11:53.234Z,998.51
2018-06-28T11:12:53.277Z,999.17
2018-06-28T11:13:53.321Z,998.75
2018-06-28T11:14:53.365Z,999.63
2018-06-28T11:15:53.409Z,999.59
2018-06-28T11:16:53.452Z,999.60
2018-06-28T11:17:53.498Z,999.62
2018-06-28T11:18:53.554Z,999.58
2018-06-28T11:19:53.592Z,998.56
2018-06-28T11:20:54.649Z,999.41
2018-06-28T11:21:53.688Z,999.60
2018-06-28T11:22:53.734Z,999.43
2018-06-28T11:23:53.781Z,999.50
2018-06-28T11:25:36.398Z,998.75
2018-06-28T11:26:36.452Z,998.58
2018-06-28T11:27:36.489Z,998.36
2018-06-28T11:28:36.538Z,998.31
2018-06-28T11:29:36.588Z,998.18
2018-06-28T11:30:36.635Z,998.23
2018-06-28T11:31:36.683Z,998.24
2018-06-28T11:32:36.730Z,998.21
2018-06-28T11:33:36.779Z,998.22
2018-06-28T11:34:36.827Z,998.18
2018-06-28T11:35:36.875Z,998.06
2018-06-28T11:36:36.920Z,998.09
2018-06-28T11:37:36.970Z,998.10
2018-06-28T11:38:37.015Z,998.12
2018-06-28T11:39:37.062Z,998.14
2018-06-28T11:40:37.107Z,998.18
2018-06-28T11:41:37.152Z,998.17
2018-06-28T11:42:37.200Z,998.19
2018-06-28T11:43:37.244Z,998.20
2018-06-28T11:44:37.290Z,998.26
2018-06-28T11:45:37.336Z,998.39
2018-06-28T11:46:37.380Z,998.38
2018-06-28T11:47:37.442Z,998.35
2018-06-28T11:48:37.469Z,998.50
2018-06-28T11:49:37.514Z,998.81
2018-06-28T11:50:37.557Z,998.81
2018-06-28T11:51:37.602Z,999.16
2018-06-28T11:52:37.648Z,999.05
2018-06-28T11:53:37.692Z,998.89
2018-06-28T11:54:37.739Z,998.74
2018-06-28T11:55:37.782Z,998.64
2018-06-28T11:56:37.827Z,998.78
2018-06-28T11:57:37.872Z,999.20
2018-06-28T11:58:37.918Z,998.59
2018-06-28T11:59:37.964Z,998.48
2018-06-28T12:00:38.010Z,998.57
2018-06-28T12:01:38.054Z,999.72
2018-06-28T12:02:38.100Z,998.60
2018-06-28T12:03:38.147Z,998.47
2018-06-28T12:04:38.192Z,998.42
2018-06-28T12:05:38.279Z,998.35
2018-06-28T12:06:38.284Z,998.36
2018-06-28T12:07:38.330Z,998.24
2018-06-28T12:08:38.375Z,998.18
2018-06-28T12:09:38.424Z,998.19
2018-06-28T12:10:38.468Z,998.10
2018-06-28T12:11:38.562Z,998.15
2018-06-28T12:12:38.559Z,998.11
2018-06-28T12:13:38.606Z,998.10
2018-06-28T12:14:38.651Z,998.05
2018-06-28T12:16:21.254Z,998.11
2018-06-28T12:17:21.300Z,998.04
2018-06-28T12:18:21.342Z,998.12
2018-06-28T12:19:21.387Z,998.09
2018-06-28T12:20:21.430Z,998.17
2018-06-28T12:21:21.475Z,998.07
2018-06-28T12:22:21.522Z,998.13
2018-06-28T12:23:21.562Z,998.20
2018-06-28T12:24:21.605Z,998.11
2018-06-28T12:25:21.647Z,998.17
2018-06-28T12:26:21.691Z,998.10
2018-06-28T12:27:21.733Z,998.18
2018-06-28T12:28:21.776Z,998.19
2018-06-28T12:29:21.819Z,998.18
2018-06-28T12:30:21.861Z,998.21
2018-06-28T12:31:21.904Z,998.27
2018-06-28T12:32:21.943Z,998.70
2018-06-28T12:33:21.988Z,998.54
2018-06-28T12:34:22.029Z,998.61
2018-06-28T12:35:22.070Z,998.67
2018-06-28T12:36:22.111Z,998.75